Time;durP1;ratioP1;P1;durP2;ratioP2;P2;SDS_P1;SDS_P2;PMS_P1;PMS_P2;Temp;Humidity;BMP_temperature;BMP_pressure;BME280_temperature;BME280_humidity;BME280_pressure;Samples;Min_cycle;Max_cycle;Signal;HPM_P1;HPM_P2
2023/06/28 07:01:23;;;;;;;1.90;1.20;;;19.20;99.90;23.00;101654.00;;;;6219817;22;1380963;-62
2023/06/28 07:03:52;;;;;;;0.10;0.10;;;19.40;99.90;22.40;101645.00;;;;6251429;22;20184;-62
2023/06/28 07:06:20;;;;;;;0.10;0.10;;;19.40;99.90;22.80;101646.00;;;;6278570;22;20560;-62
2023/06/28 07:08:46;;;;;;;0.10;0.10;;;19.60;99.90;23.50;101661.00;;;;6278324;22;20447;-62
2023/06/28 07:11:20;;;;;;;0.90;0.60;;;19.90;99.90;22.90;101651.00;;;;6277806;22;20374;-62
2023/06/28 07:13:46;;;;;;;0.82;0.82;;;19.80;99.90;23.30;101654.00;;;;6251299;22;20462;-62
2023/06/28 07:16:11;;;;;;;0.10;0.10;;;19.90;99.90;24.90;101647.00;;;;6278611;22;20247;-62
2023/06/28 07:18:41;;;;;;;0.35;0.35;;;20.80;99.90;23.90;101656.00;;;;6251504;22;20145;-62
2023/06/28 07:21:12;;;;;;;0.35;0.35;;;20.80;99.90;24.50;101660.00;;;;6278724;22;20532;-62
2023/06/28 07:23:43;;;;;;;0.10;0.10;;;21.00;99.90;23.00;101644.00;;;;6278065;22;20165;-62
2023/06/28 07:26:15;;;;;;;1.55;0.50;;;20.60;99.90;23.80;101644.00;;;;6278254;22;20138;-62
2023/06/28 07:28:44;;;;;;;0.10;0.10;;;20.60;99.90;22.80;101643.00;;;;6278453;22;20191;-62
2023/06/28 07:31:12;;;;;;;0.00;0.00;;;20.40;99.90;25.80;101668.00;;;;6278085;22;20488;-62
2023/06/28 07:33:44;;;;;;;0.90;0.90;;;21.70;99.90;28.50;101681.00;;;;6278474;22;20149;-62
2023/06/28 07:36:10;;;;;;;0.40;0.40;;;23.70;99.90;30.20;101717.00;;;;6278472;22;20145;-63
2023/06/28 07:38:36;;;;;;;0.10;0.10;;;26.00;99.90;29.60;101744.00;;;;6278152;22;20165;-63
2023/06/28 07:41:04;;;;;;;0.10;0.10;;;26.20;99.90;33.20;101710.00;;;;6278463;22;20194;-62
2023/06/28 07:43:35;;;;;;;0.35;0.35;;;27.90;99.90;27.90;101785.00;;;;6278271;22;20484;-62
2023/06/28 07:46:07;;;;;;;0.10;0.10;;;26.80;99.90;29.90;101765.00;;;;6278109;22;20145;-62
2023/06/28 07:48:38;;;;;;;0.20;0.20;;;26.60;99.90;27.70;101771.00;;;;6278285;22;20142;-62
2023/06/28 07:51:06;;;;;;;1.10;0.85;;;24.70;99.90;28.20;101761.00;;;;6278224;22;20137;-62
2023/06/28 07:53:34;;;;;;;0.20;0.20;;;25.00;99.90;26.10;101725.00;;;;6278407;22;20152;-62
2023/06/28 07:56:07;;;;;;;0.10;0.10;;;23.80;99.90;28.10;101699.00;;;;6277894;22;20453;-62
2023/06/28 07:58:41;;;;;;;0.15;0.15;;;24.30;99.90;27.90;101728.00;;;;6251369;22;20150;-62
2023/06/28 08:01:07;;;;;;;1.13;1.13;;;24.10;99.90;24.80;101703.00;;;;6278223;22;20165;-62
2023/06/28 08:03:39;;;;;;;0.10;0.10;;;23.20;99.90;25.00;101640.00;;;;6278193;22;20172;-62
2023/06/28 08:06:12;;;;;;;0.10;0.10;;;22.20;99.90;25.50;101667.00;;;;6277530;22;20145;-62
2023/06/28 08:08:38;;;;;;;0.47;0.32;;;22.40;99.90;25.00;101660.00;;;;6278269;22;20144;-62
2023/06/28 08:11:09;;;;;;;2.15;1.63;;;22.20;99.90;23.40;101615.00;;;;6251138;22;20146;-62
2023/06/28 08:13:35;;;;;;;0.10;0.10;;;21.70;99.90;23.70;101659.00;;;;6278188;22;20145;-61
2023/06/28 08:16:03;;;;;;;0.15;0.15;;;21.20;99.90;26.30;101682.00;;;;6277884;22;20239;-62
2023/06/28 08:18:29;;;;;;;2.47;1.23;;;21.90;99.90;26.00;101668.00;;;;6277951;22;20585;-62
2023/06/28 08:20:57;;;;;;;0.10;0.10;;;22.50;99.90;24.40;101651.00;;;;6277482;22;20190;-62
2023/06/28 08:23:26;;;;;;;0.10;0.10;;;22.00;99.90;25.30;101656.00;;;;6278059;22;20167;-62
2023/06/28 08:25:52;;;;;;;0.10;0.10;;;21.80;99.90;26.20;101665.00;;;;6250697;22;20160;-62
2023/06/28 08:28:22;;;;;;;5.38;1.13;;;22.40;99.90;25.70;101664.00;;;;6278076;22;20153;-62
2023/06/28 08:30:47;;;;;;;0.17;0.17;;;22.70;99.90;26.00;101672.00;;;;6277280;22;20168;-62
2023/06/28 08:33:27;;;;;;;0.10;0.10;;;22.80;99.90;27.40;101689.00;;;;6225560;22;20665;-62
2023/06/28 08:35:55;;;;;;;0.10;0.10;;;23.20;99.90;28.10;101701.00;;;;6277709;22;20164;-62
2023/06/28 08:38:58;;;;;;;1.15;1.15;;;23.90;99.90;27.70;101727.00;;;;6277903;22;20198;-62
2023/06/28 08:41:26;;;;;;;1.08;1.02;;;24.30;99.90;25.30;101658.00;;;;6250521;22;20160;-62
2023/06/28 08:44:05;;;;;;;0.65;0.65;;;23.00;99.90;25.90;101670.00;;;;6250678;22;20176;-62
2023/06/28 08:46:31;;;;;;;0.55;0.38;;;23.30;99.90;23.40;101642.00;;;;6225124;22;20156;-62
2023/06/28 08:49:04;;;;;;;0.95;0.35;;;22.10;99.90;24.30;101657.00;;;;6250569;22;20203;-62
2023/06/28 08:52:05;;;;;;;0.70;0.70;;;21.80;99.90;25.40;101674.00;;;;6250941;22;20142;-62
2023/06/28 08:54:35;;;;;;;0.28;0.28;;;22.10;99.90;26.50;101672.00;;;;6250643;22;20183;-62
2023/06/28 08:57:04;;;;;;;0.17;0.17;;;22.80;99.90;25.80;101656.00;;;;6250506;22;20160;-62
2023/06/28 08:59:50;;;;;;;1.85;1.45;;;23.30;99.90;27.40;101670.00;;;;6250546;22;20172;-62
2023/06/28 09:02:30;;;;;;;0.55;0.55;;;23.70;99.90;28.20;101684.00;;;;6274720;22;20185;-62
2023/06/28 09:04:58;;;;;;;0.10;0.10;;;24.50;99.90;29.60;101709.00;;;;6250310;22;20156;-62
2023/06/28 09:07:27;;;;;;;0.10;0.10;;;25.40;99.90;31.90;101723.00;;;;6250596;22;20616;-62
2023/06/28 09:09:55;;;;;;;3.15;2.00;;;27.00;99.90;28.10;101771.00;;;;6277478;22;20149;-62
2023/06/28 09:12:24;;;;;;;7.32;1.42;;;26.00;99.90;28.30;101712.00;;;;6250590;22;20149;-62
2023/06/28 09:14:56;;;;;;;0.20;0.20;;;24.90;99.90;29.00;101718.00;;;;6277256;22;20133;-62
2023/06/28 09:17:21;;;;;;;1.58;1.48;;;25.20;99.90;26.20;101680.00;;;;6277009;22;20176;-62
2023/06/28 09:19:52;;;;;;;6.55;3.78;;;24.00;99.90;26.70;101675.00;;;;6277181;22;20141;-62
2023/06/28 09:22:20;;;;;;;0.35;0.35;;;24.00;99.90;25.40;101654.00;;;;6251472;22;20175;-62
2023/06/28 09:24:51;;;;;;;0.93;0.75;;;23.60;99.90;25.60;101646.00;;;;6250419;22;20141;-62
2023/06/28 09:27:17;;;;;;;0.10;0.10;;;23.20;99.90;26.40;101655.00;;;;6249813;22;20138;-62
2023/06/28 09:29:57;;;;;;;1.83;1.67;;;23.50;99.90;27.60;101679.00;;;;6276959;22;20521;-63
2023/06/28 09:32:39;;;;;;;0.40;0.40;;;24.30;99.90;28.00;101668.00;;;;6277319;22;20816;-62
2023/06/28 09:35:10;;;;;;;0.30;0.30;;;24.70;99.90;30.40;101708.00;;;;6276999;22;20183;-62
2023/06/28 09:37:38;;;;;;;13.15;0.63;;;25.90;99.90;30.20;101740.00;;;;6250121;22;20157;-62
2023/06/28 09:40:08;;;;;;;1.17;0.73;;;26.70;99.90;29.90;101726.00;;;;6224799;22;20171;-62
2023/06/28 09:42:47;;;;;;;1.73;0.73;;;26.60;99.90;27.00;101741.00;;;;6276764;22;20169;-62
2023/06/28 09:45:26;;;;;;;1.85;1.52;;;25.30;99.90;26.80;101684.00;;;;6277015;22;20517;-62
2023/06/28 09:48:01;;;;;;;0.43;0.43;;;24.40;99.90;25.40;101652.00;;;;6276529;22;20153;-62
2023/06/28 09:50:50;;;;;;;0.30;0.30;;;23.80;99.90;28.40;101662.00;;;;6250290;22;20144;-62
2023/06/28 09:53:21;;;;;;;0.95;0.65;;;24.60;99.90;29.50;101710.00;;;;6276722;22;20161;-62
2023/06/28 09:55:50;;;;;;;0.47;0.47;;;25.70;99.90;28.40;101718.00;;;;6250053;22;20291;-62
2023/06/28 09:58:22;;;;;;;0.35;0.35;;;25.50;99.90;29.50;101699.00;;;;6250109;22;20195;-62
2023/06/28 10:00:53;;;;;;;1.35;1.13;;;25.50;99.90;28.90;101728.00;;;;6276924;22;20169;-62
2023/06/28 10:03:25;;;;;;;2.97;2.53;;;25.70;99.90;27.10;101696.00;;;;6224746;22;20191;-62
2023/06/28 10:05:56;;;;;;;0.10;0.10;;;24.70;99.90;26.20;101661.00;;;;6276953;22;20236;-62
2023/06/28 10:08:23;;;;;;;0.77;0.75;;;23.80;99.90;28.90;101694.00;;;;6250033;22;20195;-62
2023/06/28 10:10:57;;;;;;;0.73;0.73;;;24.80;99.90;29.00;101710.00;;;;6250023;22;20145;-62
2023/06/28 10:13:27;;;;;;;4.47;1.73;;;25.40;99.90;26.50;101692.00;;;;6250618;22;20137;-62
2023/06/28 10:16:14;;;;;;;0.10;0.10;;;24.70;99.90;29.70;101699.00;;;;6250129;22;20145;-62
2023/06/28 10:18:42;;;;;;;0.38;0.38;;;25.40;99.90;29.50;101714.00;;;;6224472;22;20160;-62
2023/06/28 10:33:27;;;;;;;0.10;0.10;;;24.00;99.90;27.90;101679.00;;;;5070433;28;20577;-62
2023/06/28 10:36:00;;;;;;;2.85;1.95;;;24.80;99.90;29.30;101644.00;;;;5046931;28;20194;-62
2023/06/28 10:38:43;;;;;;;3.15;2.17;;;25.70;99.90;27.50;101692.00;;;;5049274;28;20268;-62
2023/06/28 10:41:16;;;;;;;0.10;0.10;;;25.60;99.90;27.50;101657.00;;;;5060802;28;20191;-62
2023/06/28 10:43:47;;;;;;;1.15;1.02;;;25.00;99.90;27.40;101695.00;;;;5046091;28;20268;-62
2023/06/28 10:46:24;;;;;;;1.05;0.60;;;25.20;99.90;28.20;101669.00;;;;5050663;28;20633;-62
2023/06/28 10:48:59;;;;;;;0.10;0.10;;;25.10;99.90;26.80;101652.00;;;;5050110;28;20182;-62
2023/06/28 10:51:33;;;;;;;0.20;0.20;;;24.50;99.90;29.80;101678.00;;;;5048951;28;20216;-63
2023/06/28 10:54:28;;;;;;;1.20;1.15;;;25.40;99.90;26.80;101677.00;;;;5050090;28;20240;-63
2023/06/28 10:57:10;;;;;;;2.85;2.08;;;25.00;99.90;28.40;101681.00;;;;5048289;28;20662;-62
2023/06/28 10:59:41;;;;;;;7.95;3.55;;;25.30;99.90;28.20;101684.00;;;;5049830;28;20257;-62
2023/06/28 11:02:07;;;;;;;0.30;0.30;;;25.50;99.90;29.10;101687.00;;;;5048610;28;20202;-62
2023/06/28 11:04:53;;;;;;;6.45;3.83;;;25.90;99.90;29.80;101717.00;;;;5050081;28;20260;-63
2023/06/28 11:07:28;;;;;;;0.30;0.30;;;26.40;99.90;30.40;101731.00;;;;5081421;28;20229;-62
2023/06/28 11:10:16;;;;;;;1.25;1.17;;;26.80;99.90;28.90;101753.00;;;;5047436;28;20177;-63
2023/06/28 11:12:47;;;;;;;3.97;1.52;;;26.90;99.90;28.20;101712.00;;;;5049760;28;20683;-62
2023/06/28 11:15:28;;;;;;;6.20;4.18;;;25.80;99.90;29.40;101709.00;;;;5049119;28;20671;-63
2023/06/28 11:17:54;;;;;;;0.28;0.28;;;26.20;99.90;29.10;101679.00;;;;5042051;28;20510;-62
2023/06/28 11:20:24;;;;;;;1.08;0.95;;;25.70;99.90;31.00;101696.00;;;;5050174;28;20176;-63
2023/06/28 11:22:53;;;;;;;3.05;1.13;;;27.20;99.90;29.10;101737.00;;;;5049824;28;20190;-63
2023/06/28 11:25:43;;;;;;;1.17;1.08;;;26.80;99.90;28.00;101697.00;;;;5048273;28;20189;-62
2023/06/28 11:28:12;;;;;;;0.88;0.32;;;25.60;99.90;27.30;101662.00;;;;5032271;28;20518;-62
2023/06/28 11:30:50;;;;;;;3.10;2.40;;;25.10;99.90;28.60;101685.00;;;;5049124;28;20189;-62
2023/06/28 11:33:16;;;;;;;0.30;0.30;;;25.90;99.90;28.70;101718.00;;;;5049732;28;20217;-62
2023/06/28 11:35:43;;;;;;;2.45;2.20;;;26.30;99.90;28.50;101703.00;;;;5049597;28;20190;-62
2023/06/28 11:38:11;;;;;;;3.63;2.20;;;26.20;99.90;29.60;101713.00;;;;5049000;28;20201;-62
2023/06/28 11:40:37;;;;;;;1.73;1.40;;;26.40;99.90;28.40;101729.00;;;;5049439;28;20182;-62
2023/06/28 11:43:07;;;;;;;0.93;0.80;;;26.30;99.90;28.70;101698.00;;;;5045142;28;20194;-63
2023/06/28 11:45:33;;;;;;;2.50;1.33;;;25.80;99.90;27.60;101690.00;;;;5035911;28;20187;-63
2023/06/28 11:48:00;;;;;;;0.20;0.20;;;25.30;99.90;26.90;101641.00;;;;5034840;28;20645;-63
2023/06/28 11:51:27;;;;;;;0.10;0.10;;;24.70;99.90;30.40;101695.00;;;;5035611;28;20266;-63
2023/06/28 11:53:56;;;;;;;0.20;0.20;;;26.40;99.90;33.30;101685.00;;;;5030429;28;20222;-63
2023/06/28 11:56:39;;;;;;;0.30;0.30;;;28.30;99.90;32.20;101687.00;;;;5035884;28;20193;-63
2023/06/28 11:59:18;;;;;;;7.82;2.80;;;28.90;99.90;30.80;101721.00;;;;5024823;28;20183;-63
2023/06/28 12:01:45;;;;;;;1.10;0.85;;;28.20;99.90;27.50;101730.00;;;;5035410;28;20233;-63
2023/06/28 12:04:54;;;;;;;0.17;0.17;;;26.10;99.90;29.60;101718.00;;;;5036015;28;20179;-63
2023/06/28 12:07:26;;;;;;;0.63;0.63;;;26.60;99.90;29.10;101721.00;;;;5034091;28;20202;-62
2023/06/28 12:09:59;;;;;;;1.55;1.45;;;26.20;99.90;31.80;101687.00;;;;5035360;28;20232;-63
2023/06/28 12:12:41;;;;;;;2.42;2.20;;;27.30;99.90;28.20;101736.00;;;;5029891;28;20668;-62
2023/06/28 12:15:14;;;;;;;1.65;1.08;;;26.20;99.90;27.80;101705.00;;;;5034313;28;20704;-62
2023/06/28 12:17:44;;;;;;;7.35;2.15;;;25.40;99.90;28.00;101715.00;;;;5034131;28;20210;-62
2023/06/28 12:20:14;;;;;;;0.95;0.40;;;25.40;99.90;28.80;101688.00;;;;5035076;28;20183;-62
2023/06/28 12:22:45;;;;;;;1.75;1.13;;;25.30;99.90;27.40;101691.00;;;;5035287;28;20194;-62
2023/06/28 12:25:12;;;;;;;0.75;0.60;;;25.00;99.90;28.40;101693.00;;;;5035628;28;20183;-62
2023/06/28 12:27:41;;;;;;;0.10;0.10;;;25.50;99.90;30.60;101676.00;;;;5034909;28;20656;-63
2023/06/28 12:30:12;;;;;;;7.78;1.40;;;26.40;99.90;29.50;101714.00;;;;5034841;28;20225;-63
2023/06/28 12:32:49;;;;;;;2.25;1.85;;;26.50;99.90;29.70;101703.00;;;;5013002;28;20203;-62
2023/06/28 12:35:24;;;;;;;1.17;0.88;;;26.40;99.90;29.30;101693.00;;;;5034964;28;20582;-63
2023/06/28 12:38:01;;;;;;;4.75;2.10;;;26.30;99.90;28.60;101707.00;;;;5035213;28;20182;-62
2023/06/28 12:40:31;;;;;;;1.00;0.38;;;26.00;99.90;28.30;101704.00;;;;5034628;28;20236;-62
2023/06/28 12:43:14;;;;;;;7.35;3.17;;;25.40;99.90;29.20;101701.00;;;;5034911;28;20542;-63
2023/06/28 12:46:24;;;;;;;0.90;0.82;;;26.00;99.90;28.30;101672.00;;;;5066864;28;20700;-62
2023/06/28 12:48:55;;;;;;;6.72;3.53;;;25.30;99.90;29.70;101693.00;;;;5025155;28;20575;-63
2023/06/28 12:51:23;;;;;;;5.80;2.70;;;26.10;99.90;29.90;101690.00;;;;5033702;28;20303;-63
2023/06/28 12:54:06;;;;;;;7.50;4.55;;;26.40;99.90;30.70;101695.00;;;;5034008;28;20513;-63
2023/06/28 12:56:34;;;;;;;0.10;0.10;;;26.90;99.90;30.20;101691.00;;;;5027849;28;20182;-63
2023/06/28 12:59:02;;;;;;;6.78;3.45;;;26.50;99.90;29.30;101699.00;;;;5034403;28;20179;-62
2023/06/28 13:01:30;;;;;;;1.15;1.05;;;26.40;99.90;30.40;101702.00;;;;5034050;28;20232;-63
2023/06/28 13:03:59;;;;;;;2.88;1.50;;;26.70;99.90;30.20;101701.00;;;;5034748;28;20183;-63
2023/06/28 13:06:25;;;;;;;4.38;1.67;;;26.60;99.90;29.70;101711.00;;;;5034305;28;20291;-63
2023/06/28 13:08:52;;;;;;;3.08;2.50;;;26.60;99.90;28.90;101708.00;;;;5034548;28;20220;-63
2023/06/28 13:11:19;;;;;;;0.28;0.28;;;26.00;99.90;29.90;101697.00;;;;5032675;28;20665;-62
2023/06/28 13:13:53;;;;;;;2.47;0.85;;;26.20;99.90;30.10;101704.00;;;;5033031;28;20191;-63
2023/06/28 13:16:30;;;;;;;0.35;0.35;;;26.70;99.90;29.30;101708.00;;;;5033892;28;20277;-63
2023/06/28 13:18:58;;;;;;;0.55;0.55;;;26.30;99.90;30.60;101691.00;;;;5034457;28;20194;-63
2023/06/28 13:21:26;;;;;;;0.10;0.10;;;26.60;99.90;32.20;101679.00;;;;5034276;28;20190;-63
2023/06/28 13:23:52;;;;;;;1.65;1.55;;;27.50;99.90;32.20;101670.00;;;;5034266;28;20193;-63
2023/06/28 13:26:18;;;;;;;0.45;0.45;;;28.10;99.90;30.80;101665.00;;;;5034066;28;20591;-63
2023/06/28 13:28:46;;;;;;;0.20;0.20;;;27.90;99.90;28.60;101707.00;;;;5038093;28;20195;-62
2023/06/28 13:31:14;;;;;;;0.60;0.60;;;26.40;99.90;30.90;101693.00;;;;5030042;28;20260;-63
2023/06/28 13:33:48;;;;;;;0.25;0.25;;;26.70;99.90;30.70;101693.00;;;;5030876;28;20187;-63
2023/06/28 13:36:24;;;;;;;0.20;0.20;;;27.10;99.90;32.00;101681.00;;;;5025848;28;20171;-63
2023/06/28 13:38:50;;;;;;;3.10;2.28;;;27.60;99.90;30.50;101698.00;;;;5030189;28;20637;-63
2023/06/28 13:41:18;;;;;;;2.67;2.05;;;27.50;99.90;28.50;101725.00;;;;5032784;28;20183;-63
2023/06/28 13:43:49;;;;;;;7.57;3.42;;;26.50;99.90;28.90;101721.00;;;;5033504;28;20182;-63
2023/06/28 13:46:15;;;;;;;2.67;1.92;;;26.00;99.90;27.70;101709.00;;;;5033567;28;20194;-62
2023/06/28 13:48:43;;;;;;;1.92;1.63;;;25.40;99.90;27.50;101703.00;;;;5032549;28;20633;-62
2023/06/28 13:51:10;;;;;;;7.72;3.78;;;25.10;99.90;27.80;101673.00;;;;5032258;28;20214;-62
2023/06/28 13:53:47;;;;;;;3.60;1.90;;;24.90;99.90;27.00;101660.00;;;;5033254;28;20241;-63
2023/06/28 13:56:18;;;;;;;1.92;1.42;;;24.70;99.90;28.20;101645.00;;;;5032038;28;20190;-63
2023/06/28 13:58:44;;;;;;;0.90;0.45;;;24.70;99.90;28.00;101672.00;;;;5033670;28;20187;-63
2023/06/28 14:01:09;;;;;;;1.00;0.93;;;25.00;99.90;28.10;101652.00;;;;5033387;28;20202;-63
2023/06/28 14:03:41;;;;;;;4.13;2.60;;;24.80;99.90;28.40;101648.00;;;;5033389;28;20664;-63
2023/06/28 14:06:14;;;;;;;0.10;0.10;;;24.90;99.90;28.90;101654.00;;;;5030956;28;20587;-63
2023/06/28 14:08:43;;;;;;;1.35;1.35;;;25.10;99.90;28.80;101664.00;;;;5033235;28;20541;-63
2023/06/28 14:11:09;;;;;;;0.10;0.10;;;25.30;99.90;28.00;101646.00;;;;5033507;28;20680;-63
2023/06/28 14:13:38;;;;;;;1.27;1.10;;;24.80;99.90;27.40;101643.00;;;;5031975;28;20213;-63
2023/06/28 14:16:10;;;;;;;0.93;0.88;;;24.60;99.90;28.60;101635.00;;;;5033273;28;20182;-63
2023/06/28 14:18:35;;;;;;;6.15;3.60;;;24.80;99.90;27.60;101632.00;;;;5033305;28;20712;-63
2023/06/28 14:21:01;;;;;;;4.25;3.20;;;24.70;99.90;27.70;101624.00;;;;5033558;28;20187;-63
2023/06/28 14:23:34;;;;;;;0.10;0.10;;;24.60;99.90;27.70;101615.00;;;;5033237;28;20191;-62
2023/06/28 14:26:13;;;;;;;3.38;2.00;;;24.60;99.90;26.60;101599.00;;;;5033514;28;20236;-63
2023/06/28 14:29:03;;;;;;;1.73;1.63;;;24.30;99.90;26.80;101571.00;;;;5028179;28;20282;-62
2023/06/28 14:31:36;;;;;;;1.27;1.27;;;24.20;99.90;26.90;101595.00;;;;5016520;28;20329;-62
2023/06/28 14:34:08;;;;;;;2.95;2.72;;;24.10;99.90;27.40;101565.00;;;;5033545;28;20178;-62
2023/06/28 14:36:38;;;;;;;3.25;1.67;;;24.20;99.90;27.60;101602.00;;;;5033101;28;20183;-62
2023/06/28 14:39:12;;;;;;;3.97;3.50;;;24.40;99.90;28.00;101618.00;;;;5015598;28;20194;-62
2023/06/28 14:41:50;;;;;;;6.65;3.38;;;24.80;99.90;28.00;101614.00;;;;5031830;28;20208;-62
2023/06/28 14:44:25;;;;;;;0.70;0.43;;;24.80;99.90;28.40;101608.00;;;;5012581;28;20554;-62
2023/06/28 14:47:01;;;;;;;2.30;2.15;;;24.80;99.90;27.60;101623.00;;;;5046396;28;20179;-62
2023/06/28 14:49:51;;;;;;;0.10;0.10;;;24.90;99.90;27.90;101609.00;;;;5032692;28;20186;-62
2023/06/28 14:52:22;;;;;;;1.38;1.27;;;24.70;99.90;28.10;101606.00;;;;5031449;28;20206;-62
2023/06/28 14:54:53;;;;;;;0.77;0.77;;;24.80;99.90;28.70;101607.00;;;;5032110;28;20190;-62
2023/06/28 14:57:31;;;;;;;0.10;0.10;;;24.90;99.90;29.10;101636.00;;;;5020365;28;20198;-62
2023/06/28 15:00:07;;;;;;;0.30;0.30;;;25.50;99.90;28.10;101604.00;;;;5031623;28;20194;-62
2023/06/28 15:02:35;;;;;;;1.10;1.05;;;24.90;99.90;29.80;101626.00;;;;5032639;28;20226;-63
2023/06/28 15:05:12;;;;;;;1.20;1.17;;;25.40;99.90;27.40;101631.00;;;;5032762;28;20183;-62
2023/06/28 15:07:59;;;;;;;0.70;0.65;;;24.90;99.90;28.50;101609.00;;;;5032416;28;20187;-62
2023/06/28 15:10:37;;;;;;;1.95;1.55;;;24.90;99.90;27.20;101595.00;;;;5034789;28;20712;-62
2023/06/28 15:13:08;;;;;;;1.75;0.75;;;24.70;99.90;28.00;101590.00;;;;5030387;28;20205;-62
2023/06/28 15:15:43;;;;;;;1.80;1.50;;;24.80;99.90;29.20;101615.00;;;;5033186;28;20211;-62
2023/06/28 15:18:20;;;;;;;0.57;0.57;;;25.30;99.90;27.20;101591.00;;;;5032990;28;20269;-62
2023/06/28 15:20:53;;;;;;;1.52;1.17;;;24.70;99.90;27.20;101592.00;;;;5035101;28;20795;-62
2023/06/28 15:23:30;;;;;;;1.90;1.67;;;24.50;99.90;27.20;101569.00;;;;5036304;28;20637;-62
2023/06/28 15:26:04;;;;;;;1.52;1.27;;;24.10;99.90;28.50;101588.00;;;;5034778;28;20256;-63
2023/06/28 15:28:30;;;;;;;0.30;0.30;;;24.70;99.90;29.60;101616.00;;;;5036203;28;20692;-62
2023/06/28 15:30:58;;;;;;;0.10;0.10;;;25.40;99.90;29.70;101630.00;;;;5035936;28;20182;-62
2023/06/28 15:33:24;;;;;;;0.35;0.35;;;25.70;99.90;28.80;101606.00;;;;5036307;28;20202;-62
2023/06/28 15:35:52;;;;;;;0.10;0.10;;;25.30;99.90;28.10;101587.00;;;;5036164;28;20281;-62
2023/06/28 15:38:24;;;;;;;1.40;1.20;;;24.90;99.90;29.10;101597.00;;;;5034933;28;20186;-62
2023/06/28 15:40:50;;;;;;;0.20;0.20;;;25.20;99.90;29.60;101615.00;;;;5035871;28;20185;-62
2023/06/28 15:43:23;;;;;;;2.67;2.17;;;25.40;99.90;28.10;101622.00;;;;5036348;28;20610;-62
2023/06/28 15:45:52;;;;;;;0.17;0.17;;;25.20;99.90;28.30;101585.00;;;;5035937;28;20221;-62
2023/06/28 15:48:20;;;;;;;0.10;0.10;;;25.00;99.90;29.60;101599.00;;;;5033776;28;20210;-63
2023/06/28 15:50:54;;;;;;;1.67;1.67;;;25.40;99.90;29.20;101616.00;;;;5035561;28;20190;-62
2023/06/28 15:53:27;;;;;;;0.10;0.10;;;25.50;99.90;30.30;101626.00;;;;5035984;28;20195;-63
2023/06/28 15:56:00;;;;;;;0.40;0.40;;;25.80;99.90;29.50;101639.00;;;;5035487;28;20203;-63
2023/06/28 15:58:43;;;;;;;1.13;1.13;;;26.00;99.90;30.20;101631.00;;;;5034613;28;20187;-63
2023/06/28 16:01:18;;;;;;;0.40;0.40;;;25.90;99.90;29.60;101649.00;;;;5035682;28;20193;-63
2023/06/28 16:04:02;;;;;;;0.10;0.10;;;26.00;99.90;27.50;101593.00;;;;5035423;28;20516;-63
2023/06/28 16:06:30;;;;;;;6.43;2.08;;;24.70;99.90;27.10;101562.00;;;;5034749;28;20237;-63
2023/06/28 16:09:01;;;;;;;0.95;0.95;;;24.30;99.90;27.10;101560.00;;;;5035744;28;20186;-63
2023/06/28 16:11:50;;;;;;;0.10;0.10;;;24.20;99.90;27.70;101543.00;;;;5035444;28;20221;-63
2023/06/28 16:14:16;;;;;;;0.40;0.30;;;24.20;99.90;26.20;101514.00;;;;5032517;28;20261;-63
2023/06/28 16:16:47;;;;;;;0.10;0.10;;;23.90;99.90;27.60;101559.00;;;;5035239;28;20245;-63
2023/06/28 16:19:12;;;;;;;3.90;2.95;;;24.20;99.90;27.40;101557.00;;;;5034285;28;20250;-62
2023/06/28 16:21:41;;;;;;;0.98;0.98;;;24.20;99.90;28.30;101571.00;;;;5035120;28;20276;-63
2023/06/28 16:24:14;;;;;;;1.70;1.60;;;24.40;99.90;28.10;101578.00;;;;5034307;28;20183;-63
2023/06/28 16:26:49;;;;;;;0.35;0.35;;;24.70;99.90;26.80;101546.00;;;;5035060;28;20182;-62
2023/06/28 16:29:18;;;;;;;3.65;2.25;;;24.20;99.90;28.00;101557.00;;;;5034937;28;20659;-63
2023/06/28 16:31:46;;;;;;;0.30;0.30;;;24.40;99.90;29.00;101582.00;;;;5034607;28;20258;-63
2023/06/28 16:34:14;;;;;;;0.68;0.68;;;24.90;99.90;29.80;101598.00;;;;5035085;28;20189;-63
2023/06/28 16:36:46;;;;;;;0.65;0.65;;;25.40;99.90;30.30;101614.00;;;;5034755;28;20659;-63
2023/06/28 16:39:15;;;;;;;0.10;0.10;;;25.70;99.90;29.80;101613.00;;;;5033528;28;20554;-63
2023/06/28 16:42:04;;;;;;;0.10;0.10;;;25.70;99.90;29.40;101623.00;;;;5035076;28;20219;-63
2023/06/28 16:44:38;;;;;;;0.80;0.80;;;25.50;99.90;27.20;101609.00;;;;5034801;28;20183;-63
2023/06/28 16:47:09;;;;;;;0.30;0.30;;;24.90;99.90;26.80;101559.00;;;;5027449;28;20182;-62
2023/06/28 16:49:40;;;;;;;0.47;0.47;;;24.20;99.90;27.30;101552.00;;;;5034576;28;20270;-63
2023/06/28 16:52:10;;;;;;;4.32;3.17;;;24.10;99.90;28.10;101567.00;;;;5034447;28;20226;-62
2023/06/28 16:54:43;;;;;;;0.10;0.10;;;24.40;99.90;27.00;101545.00;;;;5033529;28;20684;-62
2023/06/28 16:57:46;;;;;;;1.30;1.20;;;24.20;99.90;27.90;101551.00;;;;5034432;28;20179;-62
2023/06/28 17:00:16;;;;;;;0.40;0.40;;;24.20;99.90;29.10;101577.00;;;;5030987;28;20194;-62
2023/06/28 17:02:46;;;;;;;0.47;0.47;;;24.70;99.90;28.40;101582.00;;;;5032631;28;20187;-62
2023/06/28 17:05:14;;;;;;;0.15;0.15;;;24.80;99.90;28.30;101596.00;;;;5034342;28;20332;-62
2023/06/28 17:07:48;;;;;;;0.55;0.43;;;24.90;99.90;29.40;101601.00;;;;5034840;28;20179;-62
2023/06/28 17:10:23;;;;;;;0.20;0.20;;;25.20;99.90;29.30;101613.00;;;;5034252;28;20269;-62
2023/06/28 17:12:54;;;;;;;0.10;0.10;;;25.50;99.90;29.20;101576.00;;;;5034421;28;20675;-65
2023/06/28 17:15:43;;;;;;;0.75;0.75;;;25.40;99.90;29.20;101583.00;;;;5034111;28;20237;-63
2023/06/28 17:18:20;;;;;;;0.10;0.10;;;25.30;99.90;28.90;101576.00;;;;5033978;28;20179;-63
2023/06/28 17:20:52;;;;;;;0.10;0.10;;;25.20;99.90;28.90;101573.00;;;;5034093;28;20589;-63
2023/06/28 17:23:21;;;;;;;1.00;0.73;;;25.20;99.90;29.20;101570.00;;;;5025078;28;20201;-63
2023/06/28 17:25:53;;;;;;;0.80;0.80;;;25.20;99.90;28.80;101563.00;;;;5033197;28;20190;-63
2023/06/28 17:28:24;;;;;;;0.10;0.10;;;25.00;99.90;28.80;101560.00;;;;5033771;28;20182;-63
2023/06/28 17:30:53;;;;;;;1.85;1.75;;;24.90;99.90;28.00;101561.00;;;;5034341;28;20289;-63
2023/06/28 17:33:25;;;;;;;0.10;0.10;;;24.70;99.90;28.20;101549.00;;;;5031994;28;20224;-63
2023/06/28 17:36:08;;;;;;;2.03;1.88;;;24.50;99.90;28.20;101553.00;;;;5033993;28;20190;-63
2023/06/28 17:38:36;;;;;;;0.50;0.50;;;24.50;99.90;27.80;101553.00;;;;5033823;28;20190;-63
2023/06/28 17:41:06;;;;;;;0.90;0.45;;;24.40;99.90;28.10;101545.00;;;;5033489;28;20191;-63
2023/06/28 17:43:53;;;;;;;0.73;0.73;;;24.20;99.90;27.10;101545.00;;;;5033817;28;20183;-63
2023/06/28 17:46:28;;;;;;;0.30;0.30;;;24.10;99.90;27.70;101557.00;;;;5033271;28;20275;-63
2023/06/28 17:48:59;;;;;;;0.20;0.20;;;23.80;99.90;28.10;101550.00;;;;5027540;28;20206;-63
2023/06/28 17:51:28;;;;;;;0.10;0.10;;;23.90;99.90;28.30;101550.00;;;;5032468;28;20253;-63
2023/06/28 17:53:58;;;;;;;0.28;0.28;;;24.00;99.90;28.50;101550.00;;;;5032331;28;20240;-63
2023/06/28 17:56:26;;;;;;;0.80;0.80;;;24.30;99.90;28.20;101550.00;;;;5029388;28;20199;-63
2023/06/28 17:58:52;;;;;;;0.10;0.10;;;24.20;99.90;28.20;101546.00;;;;5032280;28;20228;-63
2023/06/28 18:01:23;;;;;;;0.10;0.10;;;24.20;99.90;27.70;101527.00;;;;5033237;28;20245;-63
2023/06/28 18:03:56;;;;;;;0.50;0.50;;;24.20;99.90;28.00;101556.00;;;;5033722;28;20540;-63
2023/06/28 18:06:35;;;;;;;0.45;0.45;;;24.00;99.90;27.70;101564.00;;;;5033504;28;20278;-63
2023/06/28 18:09:03;;;;;;;0.10;0.10;;;23.90;99.90;27.50;101559.00;;;;5032363;28;20183;-63
2023/06/28 18:11:34;;;;;;;0.10;0.10;;;23.90;99.90;28.00;101562.00;;;;5033292;28;20171;-62
2023/06/28 18:14:06;;;;;;;0.10;0.10;;;23.80;99.90;27.70;101558.00;;;;5031985;28;20234;-63
2023/06/28 18:16:32;;;;;;;0.15;0.15;;;23.80;99.90;28.50;101565.00;;;;5020707;28;20190;-63
2023/06/28 18:19:15;;;;;;;0.10;0.10;;;24.20;99.90;28.30;101565.00;;;;5032969;28;20183;-62
2023/06/28 18:21:44;;;;;;;0.10;0.10;;;24.20;99.90;28.50;101556.00;;;;5033532;28;20514;-63
2023/06/28 18:24:15;;;;;;;0.55;0.55;;;24.20;99.90;28.40;101564.00;;;;5031770;28;20190;-62